createdAt,value
2022-08-08T00:01:06.482Z,85.47
2022-08-08T00:02:57.027Z,85.21
2022-08-08T00:04:56.178Z,85.90
2022-08-08T00:08:17.499Z,137.53
2022-08-08T00:10:17.451Z,115.90
2022-08-08T00:12:24.632Z,106.13
2022-08-08T00:14:48.710Z,100.15
2022-08-08T00:16:18.818Z,96.93
2022-08-08T00:18:18.891Z,93.80
2022-08-08T00:20:18.048Z,93.73
2022-08-08T00:22:18.110Z,92.90
2022-08-08T00:24:18.247Z,91.99
2022-08-08T00:26:26.292Z,91.10
2022-08-08T00:28:35.529Z,90.12
2022-08-08T00:30:19.588Z,89.74
2022-08-08T00:32:35.683Z,89.84
2022-08-08T00:34:20.296Z,89.17
2022-08-08T00:36:19.117Z,88.98
2022-08-08T00:38:31.817Z,88.80
2022-08-08T00:41:12.143Z,89.08
2022-08-08T00:42:34.621Z,88.80
2022-08-08T00:44:20.871Z,88.70
2022-08-08T00:46:19.586Z,88.61
2022-08-08T00:48:29.848Z,88.52
2022-08-08T00:50:20.809Z,88.70
2022-08-08T00:52:20.563Z,88.24
2022-08-08T00:54:19.965Z,88.52
2022-08-08T00:56:20.670Z,87.87
2022-08-08T00:58:20.563Z,87.42
2022-08-08T01:00:22.369Z,87.96
2022-08-08T01:03:53.959Z,87.60
2022-08-08T01:04:21.568Z,87.78
2022-08-08T01:06:27.181Z,87.51
2022-08-08T01:08:21.765Z,87.87
2022-08-08T01:10:21.934Z,87.69
2022-08-08T01:12:25.725Z,87.87
2022-08-08T01:14:53.577Z,87.96
2022-08-08T01:16:28.026Z,87.96
2022-08-08T01:18:50.587Z,88.24
2022-08-08T01:20:22.470Z,87.78
2022-08-08T01:22:23.618Z,87.69
2022-08-08T01:24:22.659Z,88.15
2022-08-08T01:26:24.139Z,88.24
2022-08-08T01:28:28.091Z,88.15
2022-08-08T01:30:22.953Z,88.24
2022-08-08T01:32:22.081Z,88.33
2022-08-08T01:34:22.208Z,88.24
2022-08-08T01:36:23.304Z,88.33
2022-08-08T01:38:22.391Z,88.24
2022-08-08T01:40:22.501Z,88.52
2022-08-08T01:42:36.547Z,88.89
2022-08-08T01:44:23.722Z,88.70
2022-08-08T01:46:22.866Z,88.52
2022-08-08T01:48:30.977Z,88.80
2022-08-08T01:50:26.848Z,88.80
2022-08-08T01:53:50.711Z,88.42
2022-08-08T01:55:26.746Z,88.42
2022-08-08T01:56:31.008Z,88.80
2022-08-08T01:58:38.165Z,88.42
2022-08-08T02:00:24.602Z,88.06
2022-08-08T02:02:34.875Z,88.42
2022-08-08T02:04:24.792Z,88.61
2022-08-08T02:06:33.097Z,88.52
2022-08-08T02:08:25.010Z,89.17
2022-08-08T02:10:29.834Z,88.89
2022-08-08T02:12:25.314Z,88.61
2022-08-08T02:14:24.330Z,88.52
2022-08-08T02:16:24.445Z,88.70
2022-08-08T02:18:24.629Z,88.70
2022-08-08T02:21:00.073Z,88.89
2022-08-08T02:22:28.380Z,88.80
2022-08-08T02:24:25.883Z,88.42
2022-08-08T02:26:24.982Z,88.80
2022-08-08T02:28:25.967Z,88.42
2022-08-08T02:30:26.164Z,88.33
2022-08-08T02:32:32.142Z,88.52
2022-08-08T02:34:27.486Z,88.52
2022-08-08T02:36:26.514Z,88.52
2022-08-08T02:38:30.025Z,89.17
2022-08-08T02:40:25.774Z,88.80
2022-08-08T02:42:36.232Z,88.80
2022-08-08T02:44:42.373Z,88.80
2022-08-08T02:46:27.042Z,88.98
2022-08-08T02:48:27.496Z,89.27
2022-08-08T02:50:26.285Z,89.08
2022-08-08T02:52:42.843Z,89.17
2022-08-08T02:54:27.920Z,89.08
2022-08-08T02:56:26.646Z,89.36
2022-08-08T02:58:26.917Z,89.27
2022-08-08T03:00:31.610Z,89.08
2022-08-08T03:02:30.241Z,89.46
2022-08-08T03:05:03.849Z,89.27
2022-08-08T03:06:34.790Z,89.27
2022-08-08T03:08:28.364Z,89.17
2022-08-08T03:10:32.806Z,89.27
2022-08-08T03:12:36.787Z,89.08
2022-08-08T03:15:59.350Z,89.36
2022-08-08T03:16:35.955Z,89.27
2022-08-08T03:18:31.348Z,89.55
2022-08-08T03:20:28.167Z,89.74
2022-08-08T03:22:38.563Z,89.65
2022-08-08T03:24:29.388Z,89.55
2022-08-08T03:26:30.651Z,89.55
2022-08-08T03:28:28.656Z,89.55
2022-08-08T03:30:28.770Z,89.65
2022-08-08T03:32:30.556Z,89.36
2022-08-08T03:34:28.989Z,89.55
2022-08-08T03:36:30.282Z,89.55
2022-08-08T03:38:53.874Z,89.36
2022-08-08T03:40:32.087Z,89.93
2022-08-08T03:42:30.822Z,89.74
2022-08-08T03:44:29.452Z,89.93
2022-08-08T03:46:30.808Z,89.84
2022-08-08T03:49:09.515Z,89.93
2022-08-08T03:50:30.774Z,90.51
2022-08-08T03:52:30.089Z,90.22
2022-08-08T03:54:40.633Z,89.93
2022-08-08T03:56:32.576Z,89.55
2022-08-08T03:58:37.507Z,90.51
2022-08-08T04:00:31.447Z,90.61
2022-08-08T04:02:36.609Z,90.71
2022-08-08T04:04:31.768Z,90.12
2022-08-08T04:06:30.916Z,90.61
2022-08-08T04:08:33.822Z,90.32
2022-08-08T04:10:32.136Z,89.93
2022-08-08T04:12:31.620Z,90.12
2022-08-08T04:14:35.517Z,90.41
2022-08-08T04:17:59.170Z,147.25
2022-08-08T04:19:48.969Z,122.82
2022-08-08T04:21:48.108Z,110.73
2022-08-08T04:24:12.173Z,103.15
2022-08-08T04:25:49.384Z,98.92
2022-08-08T04:28:10.575Z,97.88
2022-08-08T04:29:55.505Z,94.80
2022-08-08T04:31:58.862Z,95.21
2022-08-08T04:33:50.026Z,93.64
2022-08-08T04:35:50.975Z,93.83
2022-08-08T04:37:49.312Z,93.31
2022-08-08T04:40:06.735Z,93.42
2022-08-08T04:41:50.600Z,93.21
2022-08-08T04:43:54.203Z,92.70
2022-08-08T04:45:50.880Z,92.09
2022-08-08T04:47:49.902Z,92.19
2022-08-08T04:50:01.155Z,91.20
2022-08-08T04:51:57.390Z,91.99
2022-08-08T04:54:27.102Z,91.29
2022-08-08T04:55:56.021Z,91.59
2022-08-08T04:57:51.604Z,90.41
2022-08-08T04:59:50.713Z,90.51
2022-08-08T05:01:50.878Z,91.20
2022-08-08T05:04:08.454Z,90.61
2022-08-08T05:05:53.478Z,90.41
2022-08-08T05:07:51.223Z,89.74
2022-08-08T05:09:52.369Z,90.03
2022-08-08T05:11:56.603Z,89.84
2022-08-08T05:13:57.995Z,89.46
2022-08-08T05:16:52.825Z,89.55
2022-08-08T05:17:53.634Z,89.36
2022-08-08T05:20:12.329Z,88.98
2022-08-08T05:21:59.562Z,88.24
2022-08-08T05:24:03.033Z,88.33
2022-08-08T05:25:57.272Z,88.15
2022-08-08T05:27:54.866Z,87.96
2022-08-08T05:29:52.708Z,87.87
2022-08-08T05:32:03.895Z,87.60
2022-08-08T05:33:54.014Z,87.60
2022-08-08T05:35:53.222Z,87.51
2022-08-08T05:37:54.476Z,87.15
2022-08-08T05:39:53.406Z,87.42
2022-08-08T05:41:54.859Z,86.79
2022-08-08T05:44:03.635Z,86.17
2022-08-08T05:45:55.203Z,86.61
2022-08-08T05:48:00.039Z,85.82
2022-08-08T05:49:56.212Z,86.17
2022-08-08T05:51:54.243Z,85.99
2022-08-08T05:54:26.920Z,85.47
2022-08-08T05:56:10.272Z,85.30
2022-08-08T05:58:04.067Z,84.95
2022-08-08T06:00:01.114Z,84.53
2022-08-08T06:01:58.023Z,84.61
2022-08-08T06:03:55.687Z,84.53
2022-08-08T06:05:56.719Z,84.11
2022-08-08T06:08:00.198Z,84.53
2022-08-08T06:10:00.993Z,84.02
2022-08-08T06:11:56.551Z,83.69
2022-08-08T06:13:55.663Z,83.19
2022-08-08T06:15:55.815Z,83.44
2022-08-08T06:18:18.415Z,83.52
2022-08-08T06:19:57.042Z,83.19
2022-08-08T06:21:57.607Z,83.03
2022-08-08T06:24:03.311Z,82.79
2022-08-08T06:26:43.673Z,81.90
2022-08-08T06:27:57.456Z,80.80
2022-08-08T06:30:01.119Z,78.69
2022-08-08T06:32:10.056Z,77.04
2022-08-08T06:34:25.822Z,74.65
2022-08-08T06:36:06.335Z,71.67
2022-08-08T06:37:58.087Z,68.36
2022-08-08T06:39:57.356Z,66.22
2022-08-08T06:41:57.360Z,63.10
2022-08-08T06:43:57.668Z,60.78
2022-08-08T06:45:57.602Z,58.30
2022-08-08T06:48:01.131Z,56.70
2022-08-08T06:49:57.782Z,55.14
2022-08-08T06:51:58.242Z,53.84
2022-08-08T06:54:00.802Z,52.93
2022-08-08T06:56:02.853Z,52.01
2022-08-08T06:58:00.726Z,51.01
2022-08-08T07:00:10.712Z,50.70
2022-08-08T07:02:27.548Z,50.37
2022-08-08T07:04:36.749Z,49.74
2022-08-08T07:06:02.203Z,49.05
2022-08-08T07:07:58.890Z,48.51
2022-08-08T07:09:59.573Z,47.74
2022-08-08T07:11:59.158Z,47.32
2022-08-08T07:14:00.794Z,46.97
2022-08-08T07:16:05.377Z,46.51
2022-08-08T07:18:02.051Z,46.05
2022-08-08T07:20:00.586Z,45.56
2022-08-08T07:22:05.536Z,45.26
2022-08-08T07:24:02.827Z,44.83
2022-08-08T07:25:59.927Z,44.59
2022-08-08T07:28:02.459Z,44.22
2022-08-08T07:30:05.978Z,43.94
2022-08-08T07:32:01.725Z,43.76
2022-08-08T07:34:00.417Z,43.76
2022-08-08T07:36:00.546Z,43.67
2022-08-08T07:38:10.517Z,43.85
2022-08-08T07:40:02.680Z,43.99
2022-08-08T07:42:03.981Z,44.17
2022-08-08T07:44:01.744Z,44.45
2022-08-08T07:46:18.081Z,44.92
2022-08-08T07:48:02.240Z,45.31
2022-08-08T07:50:01.360Z,45.12
2022-08-08T07:52:01.495Z,45.36
2022-08-08T07:54:03.537Z,45.21
2022-08-08T07:56:01.753Z,45.17
2022-08-08T07:58:01.868Z,45.41
2022-08-08T08:00:01.987Z,45.12
2022-08-08T08:02:34.999Z,44.97
2022-08-08T08:04:03.281Z,44.69
2022-08-08T08:06:02.405Z,44.83
2022-08-08T08:08:02.489Z,44.22
2022-08-08T08:10:02.733Z,44.08
2022-08-08T08:12:02.790Z,43.58
2022-08-08T08:14:08.328Z,43.45
2022-08-08T08:16:04.375Z,43.05
2022-08-08T08:18:03.174Z,42.96
2022-08-08T08:20:03.299Z,42.44
2022-08-08T08:22:07.771Z,42.19
2022-08-08T08:24:03.789Z,41.81
2022-08-08T08:26:03.692Z,41.65
2022-08-08T08:28:03.865Z,41.40
2022-08-08T08:30:03.976Z,41.28
2022-08-08T08:32:05.678Z,41.16
2022-08-08T08:34:04.224Z,40.53
2022-08-08T08:36:19.524Z,40.26
2022-08-08T08:38:17.166Z,40.37
2022-08-08T08:40:05.683Z,39.88
2022-08-08T08:42:04.823Z,39.69
2022-08-08T08:44:14.018Z,39.62
2022-08-08T08:46:06.016Z,39.47
2022-08-08T08:48:05.117Z,39.10
2022-08-08T08:50:10.685Z,38.96
2022-08-08T08:52:06.345Z,39.03
2022-08-08T08:54:05.467Z,38.99
2022-08-08T08:56:05.672Z,39.17
2022-08-08T08:58:05.763Z,39.43
2022-08-08T09:00:15.234Z,39.62
2022-08-08T09:02:07.026Z,39.39
2022-08-08T09:04:06.081Z,39.54
2022-08-08T09:06:19.307Z,39.65
2022-08-08T09:08:12.832Z,39.58
2022-08-08T09:10:11.094Z,39.47
2022-08-08T09:12:08.570Z,39.36
2022-08-08T09:14:06.735Z,39.50
2022-08-08T09:16:06.807Z,39.03
2022-08-08T09:18:06.949Z,38.88
2022-08-08T09:21:58.691Z,38.81
2022-08-08T09:22:08.223Z,38.67
2022-08-08T09:24:07.815Z,38.32
2022-08-08T09:26:12.434Z,38.15
2022-08-08T09:28:07.582Z,37.87
2022-08-08T09:30:07.704Z,37.40
2022-08-08T09:32:11.943Z,36.98
2022-08-08T09:34:31.566Z,36.62
2022-08-08T09:36:09.050Z,36.03
2022-08-08T09:38:17.517Z,35.58
2022-08-08T09:40:11.216Z,35.19
2022-08-08T09:42:19.967Z,34.96
2022-08-08T09:44:13.110Z,34.67
2022-08-08T09:46:11.278Z,34.59
2022-08-08T09:48:21.053Z,34.42
2022-08-08T09:50:13.675Z,34.53
2022-08-08T09:52:16.247Z,34.33
2022-08-08T09:54:14.113Z,34.31
2022-08-08T09:56:12.305Z,34.08
2022-08-08T09:58:09.779Z,33.95
2022-08-08T10:00:32.934Z,33.60
2022-08-08T10:02:14.464Z,33.44
2022-08-08T10:04:09.901Z,33.07
2022-08-08T10:06:10.001Z,32.94
2022-08-08T10:08:10.180Z,32.71
2022-08-08T10:10:10.192Z,32.69
2022-08-08T10:12:27.930Z,32.56
2022-08-08T10:14:28.084Z,32.61
2022-08-08T10:16:11.749Z,32.53
2022-08-08T10:18:17.054Z,32.41
2022-08-08T10:20:17.151Z,32.41
2022-08-08T10:22:10.829Z,32.43
2022-08-08T10:24:28.276Z,32.28
2022-08-08T10:26:26.063Z,32.21
2022-08-08T10:28:15.177Z,32.41
2022-08-08T10:30:23.590Z,32.21
2022-08-08T10:32:12.412Z,31.94
2022-08-08T10:34:20.209Z,31.90
2022-08-08T10:36:20.796Z,31.58
2022-08-08T10:38:13.744Z,31.63
2022-08-08T10:40:11.999Z,31.70
2022-08-08T10:42:15.423Z,31.61
2022-08-08T10:44:12.415Z,31.63
2022-08-08T10:46:29.671Z,31.61
2022-08-08T10:48:13.432Z,31.54
2022-08-08T10:50:15.311Z,31.54
2022-08-08T10:52:12.631Z,31.54
2022-08-08T10:54:12.746Z,31.51
2022-08-08T10:56:15.910Z,31.24
2022-08-08T10:58:13.990Z,31.30
2022-08-08T11:00:13.110Z,31.19
2022-08-08T11:02:13.360Z,31.30
2022-08-08T11:04:13.431Z,31.19
2022-08-08T11:06:14.040Z,31.30
2022-08-08T11:08:37.971Z,31.44
2022-08-08T11:10:19.871Z,31.40
2022-08-08T11:12:14.923Z,31.77
2022-08-08T11:14:16.319Z,31.94
2022-08-08T11:16:32.355Z,32.53
2022-08-08T11:18:15.262Z,32.74
2022-08-08T11:20:14.493Z,32.99
2022-08-08T11:22:14.601Z,33.38
2022-08-08T11:24:14.700Z,33.51
2022-08-08T11:26:19.190Z,33.89
2022-08-08T11:28:18.601Z,34.08
2022-08-08T11:30:24.047Z,33.97
2022-08-08T11:32:16.339Z,34.19
2022-08-08T11:34:24.423Z,34.31
2022-08-08T11:36:16.616Z,34.42
2022-08-08T11:38:35.633Z,34.56
2022-08-08T11:40:16.959Z,34.87
2022-08-08T11:42:16.993Z,35.04
2022-08-08T11:44:16.425Z,35.10
2022-08-08T11:46:18.308Z,35.31
2022-08-08T11:48:20.311Z,35.52
2022-08-08T11:50:16.593Z,35.52
2022-08-08T11:52:18.492Z,35.52
2022-08-08T11:54:31.552Z,35.46
2022-08-08T11:56:18.019Z,35.70
2022-08-08T11:58:17.228Z,35.85
2022-08-08T12:00:17.298Z,36.03
2022-08-08T12:02:31.659Z,36.00
2022-08-08T12:04:18.612Z,36.15
2022-08-08T12:06:17.716Z,36.56
2022-08-08T12:08:17.824Z,36.85
2022-08-08T12:10:18.062Z,36.88
2022-08-08T12:12:22.461Z,37.47
2022-08-08T12:14:19.246Z,37.74
2022-08-08T12:16:18.347Z,38.11
2022-08-08T12:18:21.629Z,38.99
2022-08-08T12:20:19.694Z,39.32
2022-08-08T12:22:33.481Z,39.99
2022-08-08T12:24:19.879Z,40.64
2022-08-08T12:26:27.492Z,41.52
2022-08-08T12:28:20.049Z,41.94
2022-08-08T12:30:24.929Z,42.48
2022-08-08T12:32:21.010Z,43.00
2022-08-08T12:34:20.442Z,43.27
2022-08-08T12:36:20.656Z,43.67
2022-08-08T12:38:19.753Z,43.85
2022-08-08T12:40:22.910Z,44.50
2022-08-08T12:42:21.148Z,44.73
2022-08-08T12:44:32.268Z,44.97
2022-08-08T12:46:26.147Z,44.97
2022-08-08T12:48:37.243Z,45.02
2022-08-08T12:50:21.796Z,45.07
2022-08-08T12:52:28.762Z,45.36
2022-08-08T12:54:24.174Z,45.41
2022-08-08T12:56:24.172Z,45.31
2022-08-08T12:58:21.105Z,45.60
2022-08-08T13:00:22.172Z,45.75
2022-08-08T13:02:22.197Z,45.65
2022-08-08T13:04:24.433Z,46.05
2022-08-08T13:06:21.381Z,46.30
2022-08-08T13:08:22.893Z,46.20
2022-08-08T13:10:28.227Z,46.46
2022-08-08T13:12:37.141Z,46.71
2022-08-08T13:14:22.889Z,46.82
2022-08-08T13:16:25.209Z,46.77
2022-08-08T13:18:27.370Z,46.97
2022-08-08T13:20:23.258Z,46.92
2022-08-08T13:22:24.571Z,46.77
2022-08-08T13:24:38.514Z,47.08
2022-08-08T13:26:24.798Z,47.24
2022-08-08T13:28:22.669Z,47.24
2022-08-08T13:30:26.315Z,47.13
2022-08-08T13:32:28.608Z,47.21
2022-08-08T13:34:33.324Z,47.56
2022-08-08T13:36:26.223Z,47.69
2022-08-08T13:38:23.229Z,47.64
2022-08-08T13:40:27.272Z,47.37
2022-08-08T13:42:23.478Z,47.91
2022-08-08T13:44:23.549Z,48.02
2022-08-08T13:46:26.533Z,48.13
2022-08-08T13:48:25.845Z,48.29
2022-08-08T13:50:36.437Z,48.49
2022-08-08T13:52:37.615Z,48.82
2022-08-08T13:54:29.460Z,49.13
2022-08-08T13:56:25.344Z,49.39
2022-08-08T13:58:24.393Z,49.86
2022-08-08T14:00:24.523Z,49.98
2022-08-08T14:02:33.325Z,50.46
2022-08-08T14:04:25.950Z,50.43
2022-08-08T14:06:34.048Z,50.76
2022-08-08T14:08:29.754Z,50.82
2022-08-08T14:10:33.557Z,50.79
2022-08-08T14:12:26.286Z,50.88
2022-08-08T14:14:26.317Z,50.91
2022-08-08T14:16:25.549Z,51.16
2022-08-08T14:18:36.331Z,51.01
2022-08-08T14:20:58.059Z,51.13
2022-08-08T14:22:26.856Z,51.25
2022-08-08T14:24:26.052Z,51.22
2022-08-08T14:26:28.221Z,51.35
2022-08-08T14:28:29.259Z,51.54
2022-08-08T14:30:26.361Z,51.57
2022-08-08T14:32:29.981Z,52.01
2022-08-08T14:34:27.760Z,51.92
2022-08-08T14:36:26.674Z,52.17
2022-08-08T14:38:34.177Z,52.37
2022-08-08T14:40:28.041Z,52.79
2022-08-08T14:42:27.085Z,52.99
2022-08-08T14:44:30.361Z,53.03
2022-08-08T14:46:32.669Z,53.09
2022-08-08T14:48:38.760Z,53.26
2022-08-08T14:50:38.020Z,53.09
2022-08-08T14:52:28.710Z,53.19
2022-08-08T14:54:29.543Z,53.23
2022-08-08T14:56:27.855Z,53.16
2022-08-08T14:58:27.936Z,53.50
2022-08-08T15:00:28.070Z,53.29
2022-08-08T15:02:30.994Z,53.29
2022-08-08T15:04:28.257Z,53.43
2022-08-08T15:06:28.418Z,53.29
2022-08-08T15:08:34.370Z,53.26
2022-08-08T15:10:29.680Z,53.26
2022-08-08T15:12:28.822Z,53.33
2022-08-08T15:14:28.930Z,53.26
2022-08-08T15:16:29.085Z,53.36
2022-08-08T15:18:29.837Z,53.36
2022-08-08T15:20:29.312Z,53.67
2022-08-08T15:22:29.467Z,53.53
2022-08-08T15:24:31.569Z,53.60
2022-08-08T15:26:29.721Z,53.67
2022-08-08T15:28:33.532Z,53.43
2022-08-08T15:30:29.977Z,53.87
2022-08-08T15:32:31.659Z,53.77
2022-08-08T15:34:32.166Z,53.94
2022-08-08T15:36:30.312Z,54.22
2022-08-08T15:38:30.407Z,54.57
2022-08-08T15:40:30.559Z,54.57
2022-08-08T15:42:31.685Z,54.36
2022-08-08T15:44:31.787Z,54.60
2022-08-08T15:46:34.795Z,54.89
2022-08-08T15:48:31.146Z,54.92
2022-08-08T15:50:31.188Z,54.96
2022-08-08T15:52:33.170Z,55.32
2022-08-08T15:54:38.822Z,55.14
2022-08-08T15:56:32.602Z,55.69
2022-08-08T15:58:31.912Z,55.65
2022-08-08T16:00:31.793Z,55.54
2022-08-08T16:02:32.318Z,55.72
2022-08-08T16:04:32.053Z,55.72
2022-08-08T16:06:32.146Z,56.28
2022-08-08T16:08:32.335Z,56.02
2022-08-08T16:13:09.239Z,56.47
2022-08-08T16:13:15.032Z,56.17
2022-08-08T16:14:33.889Z,56.51
2022-08-08T16:16:32.790Z,56.73
2022-08-08T16:18:33.080Z,56.81
2022-08-08T16:20:33.068Z,57.00
2022-08-08T16:22:33.191Z,56.81
2022-08-08T16:24:33.319Z,57.23
2022-08-08T16:26:35.335Z,56.96
2022-08-08T16:28:35.364Z,57.16
2022-08-08T16:30:36.693Z,56.96
2022-08-08T16:32:34.045Z,57.23
2022-08-08T16:34:34.052Z,57.27
2022-08-08T16:36:34.411Z,57.23
2022-08-08T16:38:34.333Z,57.39
2022-08-08T16:40:34.607Z,57.27
2022-08-08T16:42:34.940Z,57.62
2022-08-08T16:44:34.759Z,57.55
2022-08-08T16:46:36.386Z,57.43
2022-08-08T16:48:37.030Z,57.66
2022-08-08T16:50:35.170Z,57.70
2022-08-08T16:55:03.427Z,57.70
2022-08-08T16:55:05.270Z,57.82
2022-08-08T16:56:36.527Z,57.74
2022-08-08T16:58:36.674Z,58.02
2022-08-08T17:00:35.848Z,58.10
2022-08-08T17:02:44.555Z,58.22
2022-08-08T17:04:37.173Z,58.26
2022-08-08T17:06:43.818Z,58.42
2022-08-08T17:08:37.324Z,58.42
2022-08-08T17:10:36.495Z,58.58
2022-08-08T17:12:37.380Z,58.67
2022-08-08T17:14:36.779Z,58.75
2022-08-08T17:16:36.931Z,58.79
2022-08-08T17:18:37.043Z,58.91
2022-08-08T17:20:38.109Z,59.04
2022-08-08T17:22:39.109Z,59.16
2022-08-08T17:24:38.451Z,59.04
2022-08-08T17:26:37.585Z,59.28
2022-08-08T17:28:37.746Z,59.41
2022-08-08T17:30:37.871Z,59.75
2022-08-08T17:33:43.864Z,59.66
2022-08-08T17:34:54.738Z,59.75
2022-08-08T17:36:44.177Z,59.83
2022-08-08T17:38:39.451Z,60.09
2022-08-08T17:40:38.610Z,60.22
2022-08-08T17:42:38.711Z,60.39
2022-08-08T17:44:39.810Z,60.17
2022-08-08T17:46:39.939Z,60.43
2022-08-08T17:48:39.082Z,60.43
2022-08-08T17:50:39.229Z,60.69
2022-08-08T17:52:43.006Z,60.87
2022-08-08T17:54:39.474Z,60.96
2022-08-08T17:56:39.622Z,61.22
2022-08-08T17:58:39.762Z,61.22
2022-08-08T18:00:41.378Z,61.53
2022-08-08T18:02:40.106Z,61.67
2022-08-08T18:04:47.835Z,61.99
2022-08-08T18:06:43.091Z,62.03
2022-08-08T18:08:41.984Z,62.03
2022-08-08T18:10:40.607Z,62.26
2022-08-08T18:12:40.749Z,62.58
2022-08-08T18:14:40.895Z,62.77
2022-08-08T18:16:41.288Z,63.05
2022-08-08T18:18:45.148Z,63.38
2022-08-08T18:20:54.576Z,63.38
2022-08-08T18:22:50.915Z,63.57
2022-08-08T18:24:42.621Z,63.86
2022-08-08T18:26:42.684Z,64.15
2022-08-08T18:28:54.717Z,64.35
2022-08-08T18:30:43.019Z,64.60
2022-08-08T18:32:43.211Z,64.74
2022-08-08T18:34:42.599Z,64.94
2022-08-08T18:36:44.378Z,64.94
2022-08-08T18:38:42.498Z,65.04
2022-08-08T18:40:42.622Z,65.60
2022-08-08T18:42:45.607Z,65.70
2022-08-08T18:44:55.826Z,66.22
2022-08-08T18:46:55.465Z,66.11
2022-08-08T18:48:44.169Z,66.79
2022-08-08T18:50:50.067Z,66.17
2022-08-08T18:52:44.462Z,66.43
2022-08-08T18:54:44.553Z,67.27
2022-08-08T18:56:44.681Z,67.43
2022-08-08T18:58:43.832Z,66.95
2022-08-08T19:00:46.518Z,67.33
2022-08-08T19:02:54.757Z,67.54
2022-08-08T19:04:45.210Z,67.60
2022-08-08T19:06:47.014Z,67.92
2022-08-08T19:08:45.578Z,68.20
2022-08-08T19:10:44.621Z,68.36
2022-08-08T19:12:53.223Z,68.31
2022-08-08T19:14:45.997Z,68.14
2022-08-08T19:16:45.029Z,68.59
2022-08-08T19:18:51.812Z,68.70
2022-08-08T19:20:46.519Z,68.75
2022-08-08T19:22:45.273Z,68.92
2022-08-08T19:25:21.354Z,68.92
2022-08-08T19:26:50.992Z,68.81
2022-08-08T19:28:46.649Z,69.09
2022-08-08T19:30:51.422Z,69.15
2022-08-08T19:32:46.813Z,69.60
2022-08-08T19:34:45.912Z,69.38
2022-08-08T19:36:46.013Z,69.32
2022-08-08T19:38:46.441Z,69.43
2022-08-08T19:40:46.321Z,69.43
2022-08-08T19:42:46.376Z,69.55
2022-08-08T19:44:50.207Z,69.72
2022-08-08T19:46:46.697Z,69.60
2022-08-08T19:48:46.718Z,69.89
2022-08-08T19:50:46.982Z,69.89
2022-08-08T19:52:54.395Z,69.72
2022-08-08T19:54:51.201Z,69.55
2022-08-08T19:56:48.956Z,69.83
2022-08-08T19:58:51.891Z,69.83
2022-08-08T20:00:47.538Z,69.89
2022-08-08T20:02:50.463Z,69.95
2022-08-08T20:04:47.758Z,69.78
2022-08-08T20:06:47.890Z,69.89
2022-08-08T20:08:48.774Z,70.12
2022-08-08T20:10:48.198Z,70.36
2022-08-08T20:12:59.226Z,70.24
2022-08-08T20:14:51.647Z,70.48
2022-08-08T20:16:48.550Z,70.24
2022-08-08T20:18:52.763Z,70.36
2022-08-08T20:20:49.842Z,70.42
2022-08-08T20:22:53.820Z,70.36
2022-08-08T20:24:49.984Z,70.59
2022-08-08T20:26:49.541Z,70.59
2022-08-08T20:28:51.042Z,70.77
2022-08-08T20:30:55.893Z,70.36
2022-08-08T20:32:50.482Z,70.77
2022-08-08T20:34:53.550Z,71.01
2022-08-08T20:36:49.650Z,71.01
2022-08-08T20:38:50.443Z,70.65
2022-08-08T20:40:51.211Z,70.77
2022-08-08T20:42:49.987Z,70.71
2022-08-08T20:44:50.054Z,70.42
2022-08-08T20:46:50.188Z,70.95
2022-08-08T20:48:50.253Z,70.89
2022-08-08T20:50:50.676Z,70.77
2022-08-08T20:52:50.610Z,71.13
2022-08-08T20:54:50.714Z,71.07
2022-08-08T20:57:04.638Z,71.07
2022-08-08T20:58:51.836Z,70.89
2022-08-08T21:00:50.961Z,71.07
2022-08-08T21:02:52.793Z,71.13
2022-08-08T21:04:51.133Z,71.13
2022-08-08T21:06:52.789Z,71.37
2022-08-08T21:08:51.608Z,71.37
2022-08-08T21:10:53.602Z,71.31
2022-08-08T21:12:53.044Z,71.25
2022-08-08T21:14:51.690Z,71.55
2022-08-08T21:16:51.826Z,71.37
2022-08-08T21:18:51.953Z,71.49
2022-08-08T21:20:52.073Z,71.74
2022-08-08T21:22:52.233Z,71.86
2022-08-08T21:24:53.706Z,71.67
2022-08-08T21:26:52.430Z,71.92
2022-08-08T21:28:53.036Z,72.23
2022-08-08T21:30:52.738Z,72.10
2022-08-08T21:32:53.356Z,72.23
2022-08-08T21:34:56.516Z,72.16
2022-08-08T21:36:53.071Z,72.60
2022-08-08T21:38:53.186Z,72.47
2022-08-08T21:40:54.796Z,72.66
2022-08-08T21:42:53.501Z,72.60
2022-08-08T21:44:58.420Z,73.04
2022-08-08T21:48:03.820Z,73.04
2022-08-08T21:48:55.812Z,72.98
2022-08-08T21:50:53.891Z,73.10
2022-08-08T21:54:32.732Z,73.23
2022-08-08T21:55:03.234Z,73.36
2022-08-08T21:56:55.208Z,73.87
2022-08-08T21:58:55.484Z,73.74
2022-08-08T22:00:54.940Z,74.13
2022-08-08T22:02:54.573Z,74.13
2022-08-08T22:04:55.745Z,74.46
2022-08-08T22:06:54.871Z,74.26
2022-08-08T22:08:54.936Z,74.52
2022-08-08T22:10:55.061Z,74.85
2022-08-08T22:12:59.912Z,75.05
2022-08-08T22:14:56.315Z,75.25
2022-08-08T22:16:55.421Z,75.05
2022-08-08T22:18:55.559Z,75.59
2022-08-08T22:20:55.721Z,75.59
2022-08-08T22:22:55.792Z,75.59
2022-08-08T22:24:55.889Z,75.93
2022-08-08T22:27:02.314Z,75.93
2022-08-08T22:29:14.681Z,76.14
2022-08-08T22:30:57.218Z,76.14
2022-08-08T22:32:56.373Z,76.34
2022-08-08T22:34:56.440Z,76.07
2022-08-08T22:36:56.560Z,76.48
2022-08-08T22:38:56.655Z,76.83
2022-08-08T22:40:56.760Z,76.97
2022-08-08T22:42:56.904Z,77.18
2022-08-08T22:44:57.019Z,77.25
2022-08-08T22:46:57.183Z,77.04
2022-08-08T22:48:57.276Z,77.54
2022-08-08T22:50:57.381Z,77.75
2022-08-08T22:54:15.753Z,77.89
2022-08-08T22:55:05.191Z,77.54
2022-08-08T22:56:58.672Z,77.82
2022-08-08T22:58:57.820Z,78.18
2022-08-08T23:00:57.925Z,78.25
2022-08-08T23:02:58.085Z,78.40
2022-08-08T23:05:01.996Z,78.47
2022-08-08T23:07:02.600Z,78.69
2022-08-08T23:09:00.434Z,78.77
2022-08-08T23:11:06.217Z,79.06
2022-08-08T23:12:59.806Z,79.21
2022-08-08T23:15:10.586Z,79.51
2022-08-08T23:16:59.879Z,79.51
2022-08-08T23:19:00.068Z,79.51
2022-08-08T23:20:59.089Z,79.81
2022-08-08T23:22:59.201Z,79.89
2022-08-08T23:24:59.349Z,79.96
2022-08-08T23:26:59.432Z,80.04
2022-08-08T23:28:59.550Z,80.26
2022-08-08T23:30:59.690Z,80.19
2022-08-08T23:32:59.761Z,80.34
2022-08-08T23:34:59.868Z,80.65
2022-08-08T23:37:00.751Z,80.50
2022-08-08T23:39:00.083Z,80.57
2022-08-08T23:41:00.361Z,80.80
2022-08-08T23:43:04.220Z,80.88
2022-08-08T23:45:00.505Z,80.73
2022-08-08T23:49:04.179Z,80.80
2022-08-08T23:49:18.526Z,80.73
2022-08-08T23:51:01.911Z,81.04
2022-08-08T23:53:03.478Z,81.04
2022-08-08T23:55:13.987Z,81.04
2022-08-08T23:57:02.500Z,80.88
2022-08-08T23:59:02.616Z,81.27
